createdAt,value
2019-06-26T00:01:24.214Z,24.90
2019-06-26T00:03:51.280Z,24.90
2019-06-26T00:06:21.888Z,24.90
2019-06-26T00:08:49.041Z,24.90
2019-06-26T00:11:15.997Z,24.80
2019-06-26T00:13:44.854Z,24.80
2019-06-26T00:16:11.898Z,24.80
2019-06-26T00:18:38.869Z,24.70
2019-06-26T00:21:07.428Z,24.80
2019-06-26T00:23:34.517Z,24.80
2019-06-26T00:26:01.587Z,25.00
2019-06-26T00:28:29.421Z,25.00
2019-06-26T00:30:56.548Z,25.00
2019-06-26T00:33:25.190Z,25.10
2019-06-26T00:35:53.409Z,25.20
2019-06-26T00:38:20.620Z,25.30
2019-06-26T00:40:48.789Z,25.30
2019-06-26T00:43:15.981Z,25.30
2019-06-26T00:45:43.370Z,25.40
2019-06-26T00:48:11.117Z,25.30
2019-06-26T00:50:38.087Z,25.20
2019-06-26T00:53:05.668Z,25.30
2019-06-26T00:55:33.027Z,25.30
2019-06-26T00:57:59.977Z,25.40
2019-06-26T01:00:33.904Z,25.30
2019-06-26T01:03:00.763Z,25.40
2019-06-26T01:05:31.578Z,25.20
2019-06-26T01:07:58.766Z,25.00
2019-06-26T01:10:26.285Z,24.90
2019-06-26T01:13:06.362Z,24.80
2019-06-26T01:15:34.302Z,24.70
2019-06-26T01:18:01.533Z,24.60
2019-06-26T01:20:28.866Z,24.50
2019-06-26T01:22:56.333Z,24.50
2019-06-26T01:25:23.403Z,24.60
2019-06-26T01:27:53.869Z,24.60
2019-06-26T01:30:21.522Z,24.60
2019-06-26T01:32:48.543Z,24.50
2019-06-26T01:35:17.271Z,24.50
2019-06-26T01:37:44.285Z,24.60
2019-06-26T01:40:13.280Z,24.50
2019-06-26T01:42:40.808Z,24.40
2019-06-26T01:45:08.065Z,24.40
2019-06-26T01:47:36.268Z,24.50
2019-06-26T01:50:03.765Z,24.50
2019-06-26T01:52:30.652Z,24.50
2019-06-26T01:54:58.880Z,24.40
2019-06-26T01:57:38.798Z,24.30
2019-06-26T02:00:06.173Z,24.20
2019-06-26T02:02:33.502Z,24.10
2019-06-26T02:05:01.074Z,24.10
2019-06-26T02:07:28.166Z,24.10
2019-06-26T02:09:56.507Z,24.10
2019-06-26T02:12:23.605Z,24.10
2019-06-26T02:14:50.518Z,24.20
2019-06-26T02:17:18.653Z,24.20
2019-06-26T02:19:45.797Z,24.10
2019-06-26T02:22:12.622Z,24.00
2019-06-26T02:24:42.037Z,24.00
2019-06-26T02:27:08.953Z,24.00
2019-06-26T02:29:36.633Z,23.90
2019-06-26T02:32:03.817Z,23.80
2019-06-26T02:34:30.689Z,23.70
2019-06-26T02:36:58.613Z,23.60
2019-06-26T02:39:25.819Z,23.70
2019-06-26T02:41:52.774Z,23.70
2019-06-26T02:44:22.402Z,23.70
2019-06-26T02:46:49.621Z,23.60
2019-06-26T02:49:16.796Z,23.30
2019-06-26T02:51:44.952Z,23.20
2019-06-26T02:54:11.932Z,23.50
2019-06-26T02:56:39.107Z,23.50
2019-06-26T02:59:07.163Z,23.30
2019-06-26T03:01:34.234Z,23.20
2019-06-26T03:04:01.392Z,23.30
2019-06-26T03:06:29.148Z,23.20
2019-06-26T03:08:56.037Z,23.10
2019-06-26T03:11:26.820Z,23.10
2019-06-26T03:13:53.704Z,23.20
2019-06-26T03:16:20.665Z,23.20
2019-06-26T03:18:49.336Z,23.20
2019-06-26T03:21:16.504Z,23.30
2019-06-26T03:23:43.573Z,23.40
2019-06-26T03:26:10.914Z,23.60
2019-06-26T03:28:38.268Z,23.40
2019-06-26T03:31:05.826Z,23.20
2019-06-26T03:33:33.286Z,23.20
2019-06-26T03:36:00.249Z,23.00
2019-06-26T03:38:28.547Z,22.90
2019-06-26T03:40:55.877Z,22.80
2019-06-26T03:43:22.708Z,22.80
2019-06-26T03:45:51.523Z,22.80
2019-06-26T03:48:19.052Z,22.80
2019-06-26T03:50:45.927Z,23.00
2019-06-26T03:53:15.076Z,22.90
2019-06-26T03:55:42.118Z,22.90
2019-06-26T03:58:10.754Z,22.90
2019-06-26T04:00:39.921Z,22.70
2019-06-26T04:03:07.422Z,22.70
2019-06-26T04:05:35.763Z,22.60
2019-06-26T04:08:03.297Z,22.70
2019-06-26T04:10:31.324Z,22.70
2019-06-26T04:12:58.470Z,22.90
2019-06-26T04:15:40.781Z,22.90
2019-06-26T04:18:00.171Z,22.80
2019-06-26T04:20:27.015Z,22.80
2019-06-26T04:22:55.274Z,22.80
2019-06-26T04:25:22.656Z,22.90
2019-06-26T04:27:49.489Z,22.90
2019-06-26T04:30:37.179Z,22.80
2019-06-26T04:33:04.868Z,22.80
2019-06-26T04:35:32.231Z,22.80
2019-06-26T04:37:59.932Z,22.90
2019-06-26T04:40:26.792Z,23.00
2019-06-26T04:42:54.611Z,22.90
2019-06-26T04:45:21.999Z,22.90
2019-06-26T04:47:49.274Z,23.00
2019-06-26T04:50:17.993Z,23.00
2019-06-26T04:52:45.041Z,23.10
2019-06-26T04:55:12.289Z,23.10
2019-06-26T04:57:40.170Z,23.10
2019-06-26T05:00:08.464Z,23.10
2019-06-26T05:02:36.081Z,23.10
2019-06-26T05:05:04.808Z,23.20
2019-06-26T05:07:31.753Z,23.30
2019-06-26T05:10:02.654Z,23.40
2019-06-26T05:12:29.853Z,23.50
2019-06-26T05:14:57.149Z,23.50
2019-06-26T05:17:24.351Z,23.60
2019-06-26T05:19:58.816Z,23.70
2019-06-26T05:22:25.877Z,23.80
2019-06-26T05:24:53.717Z,23.90
2019-06-26T05:27:20.676Z,24.00
2019-06-26T05:29:47.741Z,24.00
2019-06-26T05:32:14.585Z,24.00
2019-06-26T05:34:41.661Z,24.00
2019-06-26T05:37:08.774Z,24.10
2019-06-26T05:39:36.733Z,24.10
2019-06-26T05:42:06.652Z,24.20
2019-06-26T05:44:34.166Z,24.20
2019-06-26T05:47:15.428Z,24.30
2019-06-26T05:49:42.750Z,24.30
2019-06-26T05:52:09.782Z,24.40
2019-06-26T05:54:37.768Z,24.40
2019-06-26T05:57:04.732Z,24.50
2019-06-26T05:59:31.897Z,24.50
2019-06-26T06:01:59.289Z,24.50
2019-06-26T06:04:26.146Z,24.60
2019-06-26T06:06:54.585Z,24.70
2019-06-26T06:09:21.727Z,24.80
2019-06-26T06:11:48.605Z,24.80
2019-06-26T06:14:17.047Z,24.90
2019-06-26T06:16:47.663Z,25.00
2019-06-26T06:19:13.036Z,25.10
2019-06-26T06:21:42.218Z,25.20
2019-06-26T06:24:09.501Z,25.20
2019-06-26T06:26:38.143Z,25.30
2019-06-26T06:29:05.802Z,25.30
2019-06-26T06:31:33.031Z,25.30
2019-06-26T06:34:02.861Z,25.40
2019-06-26T06:36:30.054Z,25.40
2019-06-26T06:38:58.185Z,25.60
2019-06-26T06:41:25.255Z,25.60
2019-06-26T06:43:52.153Z,25.70
2019-06-26T06:46:22.578Z,25.70
2019-06-26T06:48:49.601Z,25.80
2019-06-26T06:51:16.538Z,25.90
2019-06-26T06:53:47.497Z,26.00
2019-06-26T06:56:14.425Z,26.00
2019-06-26T06:58:44.517Z,26.10
2019-06-26T07:01:11.493Z,26.20
2019-06-26T07:03:38.805Z,26.20
2019-06-26T07:06:07.179Z,26.30
2019-06-26T07:08:34.289Z,26.50
2019-06-26T07:11:03.108Z,26.60
2019-06-26T07:13:30.376Z,26.70
2019-06-26T07:15:57.594Z,26.90
2019-06-26T07:18:26.358Z,27.10
2019-06-26T07:20:53.862Z,27.30
2019-06-26T07:23:20.823Z,27.60
2019-06-26T07:25:48.920Z,27.70
2019-06-26T07:28:16.827Z,27.80
2019-06-26T07:30:47.262Z,27.90
2019-06-26T07:33:14.426Z,28.20
2019-06-26T07:35:41.340Z,28.80
2019-06-26T07:38:10.193Z,29.40
2019-06-26T07:40:37.193Z,29.90
2019-06-26T07:43:04.254Z,30.60
2019-06-26T07:45:42.688Z,31.10
2019-06-26T07:48:09.978Z,31.90
2019-06-26T07:50:45.853Z,32.50
2019-06-26T07:53:17.722Z,33.10
2019-06-26T07:55:50.240Z,33.60
2019-06-26T07:58:48.136Z,33.80
2019-06-26T08:01:17.695Z,33.60
2019-06-26T08:03:50.227Z,33.70
2019-06-26T08:06:26.445Z,33.60
2019-06-26T08:08:56.795Z,33.70
2019-06-26T08:11:36.268Z,33.80
2019-06-26T08:14:13.859Z,33.70
2019-06-26T08:16:53.862Z,33.80
2019-06-26T08:19:23.683Z,33.80
2019-06-26T08:21:56.818Z,33.70
2019-06-26T08:24:36.049Z,33.70
2019-06-26T08:27:03.657Z,33.60
2019-06-26T08:29:39.754Z,33.60
2019-06-26T08:32:17.461Z,33.70
2019-06-26T08:34:45.153Z,33.90
2019-06-26T08:37:21.994Z,34.20
2019-06-26T08:39:53.955Z,34.50
2019-06-26T08:42:24.437Z,34.70
2019-06-26T08:44:56.162Z,34.90
2019-06-26T08:47:26.196Z,35.00
2019-06-26T08:49:57.032Z,34.80
2019-06-26T08:52:28.886Z,34.40
2019-06-26T08:55:12.803Z,34.30
2019-06-26T08:57:50.214Z,34.50
2019-06-26T09:00:50.492Z,34.80
2019-06-26T09:03:22.461Z,35.40
2019-06-26T09:05:53.626Z,35.50
2019-06-26T09:08:24.511Z,36.00
2019-06-26T09:10:55.106Z,36.30
2019-06-26T09:13:25.841Z,36.50
2019-06-26T09:15:57.724Z,36.40
2019-06-26T09:18:35.260Z,36.50
2019-06-26T09:21:00.314Z,37.00
2019-06-26T09:23:59.872Z,37.40
2019-06-26T09:26:29.780Z,37.60
2019-06-26T09:29:02.204Z,37.90
2019-06-26T09:31:29.301Z,38.10
2019-06-26T09:34:03.770Z,38.50
2019-06-26T09:36:30.862Z,38.50
2019-06-26T09:39:06.460Z,38.60
2019-06-26T09:41:46.590Z,38.80
2019-06-26T09:44:20.793Z,39.50
2019-06-26T09:46:49.938Z,40.00
2019-06-26T09:49:26.459Z,40.30
2019-06-26T09:51:55.141Z,40.50
2019-06-26T09:54:34.926Z,40.70
2019-06-26T09:57:11.567Z,40.90
2019-06-26T09:59:38.797Z,41.40
2019-06-26T10:02:13.754Z,41.20
2019-06-26T10:04:43.976Z,41.40
2019-06-26T10:07:13.183Z,41.60
2019-06-26T10:09:40.257Z,42.30
2019-06-26T10:12:16.084Z,43.00
2019-06-26T10:14:47.820Z,43.20
2019-06-26T10:17:18.177Z,43.20
2019-06-26T10:19:45.071Z,43.50
2019-06-26T10:22:14.182Z,43.60
2019-06-26T10:24:41.454Z,43.40
2019-06-26T10:27:09.539Z,42.90
2019-06-26T10:29:36.608Z,43.00
2019-06-26T10:32:03.739Z,42.70
2019-06-26T10:34:34.449Z,43.00
2019-06-26T10:37:02.080Z,43.30
2019-06-26T10:39:28.990Z,43.60
2019-06-26T10:41:56.967Z,42.80
2019-06-26T10:44:24.234Z,42.70
2019-06-26T10:46:53.595Z,42.70
2019-06-26T10:49:26.796Z,42.60
2019-06-26T10:51:50.218Z,43.10
2019-06-26T10:54:18.041Z,43.70
2019-06-26T10:56:45.198Z,44.10
2019-06-26T10:59:12.588Z,44.00
2019-06-26T11:01:40.307Z,43.70
2019-06-26T11:04:07.201Z,43.90
2019-06-26T11:06:37.267Z,43.40
2019-06-26T11:09:06.574Z,43.30
2019-06-26T11:11:33.919Z,43.20
2019-06-26T11:14:01.993Z,42.90
2019-06-26T11:16:30.306Z,42.90
2019-06-26T11:18:58.841Z,42.90
2019-06-26T11:21:26.332Z,42.50
2019-06-26T11:23:53.177Z,42.50
2019-06-26T11:26:21.416Z,42.30
2019-06-26T11:28:48.503Z,42.20
2019-06-26T11:31:16.126Z,42.00
2019-06-26T11:33:44.155Z,41.90
2019-06-26T11:36:11.184Z,41.90
2019-06-26T11:38:39.121Z,41.80
2019-06-26T11:41:06.309Z,41.90
2019-06-26T11:43:33.539Z,41.70
2019-06-26T11:46:04.468Z,41.60
2019-06-26T11:48:31.942Z,41.40
2019-06-26T11:51:02.042Z,41.40
2019-06-26T11:53:29.168Z,41.50
2019-06-26T11:55:56.106Z,41.70
2019-06-26T11:58:24.686Z,42.00
2019-06-26T12:00:51.999Z,41.90
2019-06-26T12:03:19.085Z,41.90
2019-06-26T12:05:47.109Z,41.60
2019-06-26T12:08:14.009Z,41.50
2019-06-26T12:10:43.139Z,41.40
2019-06-26T12:13:11.093Z,41.40
2019-06-26T12:15:37.984Z,41.50
2019-06-26T12:18:08.309Z,41.60
2019-06-26T12:20:35.377Z,41.60
2019-06-26T12:23:03.390Z,41.60
2019-06-26T12:25:31.087Z,41.60
2019-06-26T12:27:58.169Z,41.50
2019-06-26T12:30:27.393Z,41.50
2019-06-26T12:33:02.871Z,41.30
2019-06-26T12:35:23.633Z,41.10
2019-06-26T12:37:52.443Z,41.10
2019-06-26T12:40:19.771Z,41.00
2019-06-26T12:42:48.277Z,40.90
2019-06-26T12:45:15.690Z,40.60
2019-06-26T12:47:42.568Z,40.70
2019-06-26T12:50:14.159Z,40.70
2019-06-26T12:53:00.709Z,40.80
2019-06-26T12:55:32.600Z,40.60
2019-06-26T12:58:11.719Z,40.50
2019-06-26T13:00:26.585Z,40.60
2019-06-26T13:02:55.603Z,40.70
2019-06-26T13:05:30.019Z,40.80
2019-06-26T13:07:57.152Z,40.90
2019-06-26T13:10:24.785Z,40.70
2019-06-26T13:12:55.035Z,40.70
2019-06-26T13:15:22.593Z,40.60
2019-06-26T13:17:49.564Z,40.30
2019-06-26T13:20:16.662Z,40.10
2019-06-26T13:22:45.524Z,40.00
2019-06-26T13:25:15.805Z,40.20
2019-06-26T13:27:42.203Z,40.10
2019-06-26T13:30:10.258Z,40.20
2019-06-26T13:32:37.809Z,40.10
2019-06-26T13:35:05.335Z,39.90
2019-06-26T13:37:33.064Z,39.80
2019-06-26T13:40:00.028Z,40.00
2019-06-26T13:42:28.418Z,40.10
2019-06-26T13:44:55.861Z,40.20
2019-06-26T13:47:22.682Z,40.20
2019-06-26T13:49:52.134Z,40.20
2019-06-26T13:52:22.806Z,40.10
2019-06-26T13:54:49.822Z,40.00
2019-06-26T13:57:16.853Z,39.80
2019-06-26T13:59:43.869Z,39.70
2019-06-26T14:02:10.724Z,39.30
2019-06-26T14:04:39.468Z,39.20
2019-06-26T14:07:08.610Z,39.10
2019-06-26T14:09:36.717Z,38.80
2019-06-26T14:12:04.038Z,38.80
2019-06-26T14:14:52.779Z,38.70
2019-06-26T14:17:00.713Z,38.70
2019-06-26T14:19:27.651Z,38.70
2019-06-26T14:21:55.214Z,38.70
2019-06-26T14:24:22.578Z,38.50
2019-06-26T14:26:50.069Z,38.40
2019-06-26T14:29:21.370Z,38.10
2019-06-26T14:31:47.896Z,38.00
2019-06-26T14:34:15.110Z,38.10
2019-06-26T14:37:03.030Z,38.20
2019-06-26T14:39:30.206Z,38.10
2019-06-26T14:41:57.210Z,38.00
2019-06-26T14:44:24.811Z,37.80
2019-06-26T14:46:52.183Z,37.70
2019-06-26T14:49:19.472Z,37.80
2019-06-26T14:51:47.881Z,37.80
2019-06-26T14:54:15.171Z,37.80
2019-06-26T14:56:43.368Z,37.60
2019-06-26T14:59:10.601Z,37.60
2019-06-26T15:01:37.564Z,37.70
2019-06-26T15:04:08.015Z,37.70
2019-06-26T15:06:36.016Z,37.40
2019-06-26T15:09:06.478Z,37.10
2019-06-26T15:11:33.601Z,37.10
2019-06-26T15:14:00.476Z,36.90
2019-06-26T15:16:30.514Z,36.70
2019-06-26T15:18:58.137Z,36.70
2019-06-26T15:21:29.790Z,36.80
2019-06-26T15:24:09.942Z,36.80
2019-06-26T15:26:37.009Z,36.80
2019-06-26T15:29:04.157Z,36.80
2019-06-26T15:31:32.481Z,36.80
2019-06-26T15:34:00.380Z,36.60
2019-06-26T15:36:29.300Z,36.60
2019-06-26T15:38:59.107Z,36.60
2019-06-26T15:41:25.327Z,36.60
2019-06-26T15:43:54.582Z,36.50
2019-06-26T15:46:21.478Z,36.40
2019-06-26T15:48:50.345Z,36.30
2019-06-26T15:51:17.595Z,36.10
2019-06-26T15:53:44.512Z,36.10
2019-06-26T15:56:15.929Z,36.10
2019-06-26T15:58:43.617Z,36.10
2019-06-26T16:01:11.994Z,36.00
2019-06-26T16:03:39.856Z,36.10
2019-06-26T16:06:06.696Z,36.40
2019-06-26T16:08:36.896Z,36.40
2019-06-26T16:11:04.064Z,36.40
2019-06-26T16:13:31.089Z,36.40
2019-06-26T16:15:58.448Z,36.20
2019-06-26T16:18:31.538Z,35.90
2019-06-26T16:20:58.499Z,35.90
2019-06-26T16:23:25.582Z,35.80
2019-06-26T16:25:52.570Z,35.70
2019-06-26T16:28:19.497Z,35.60
2019-06-26T16:30:47.305Z,35.70
2019-06-26T16:33:14.690Z,35.50
2019-06-26T16:35:41.624Z,35.60
2019-06-26T16:38:10.723Z,35.60
2019-06-26T16:40:37.967Z,35.80
2019-06-26T16:43:04.980Z,35.90
2019-06-26T16:45:33.213Z,35.90
2019-06-26T16:48:00.329Z,35.80
2019-06-26T16:50:27.462Z,35.70
2019-06-26T16:52:55.196Z,35.40
2019-06-26T16:55:22.053Z,35.40
2019-06-26T16:57:49.456Z,35.20
2019-06-26T17:00:17.628Z,35.20
2019-06-26T17:02:44.692Z,35.10
2019-06-26T17:05:13.775Z,35.00
2019-06-26T17:07:41.978Z,34.90
2019-06-26T17:10:09.463Z,34.90
2019-06-26T17:12:38.676Z,34.70
2019-06-26T17:15:06.480Z,34.80
2019-06-26T17:17:36.238Z,34.70
2019-06-26T17:20:03.763Z,34.60
2019-06-26T17:22:30.803Z,34.50
2019-06-26T17:24:59.286Z,34.40
2019-06-26T17:27:26.120Z,34.40
2019-06-26T17:29:53.579Z,34.30
2019-06-26T17:32:21.026Z,34.20
2019-06-26T17:34:48.169Z,34.20
2019-06-26T17:37:18.225Z,34.20
2019-06-26T17:39:45.993Z,34.10
2019-06-26T17:42:12.862Z,34.00
2019-06-26T17:44:41.908Z,33.90
2019-06-26T17:47:09.105Z,34.00
2019-06-26T17:49:38.640Z,34.00
2019-06-26T17:52:05.997Z,33.90
2019-06-26T17:54:33.063Z,33.90
2019-06-26T17:57:02.750Z,34.00
2019-06-26T17:59:29.728Z,33.80
2019-06-26T18:01:57.703Z,33.70
2019-06-26T18:04:25.157Z,33.60
2019-06-26T18:06:52.047Z,33.60
2019-06-26T18:09:22.745Z,33.50
2019-06-26T18:11:49.745Z,33.50
2019-06-26T18:14:17.255Z,33.30
2019-06-26T18:16:44.836Z,33.30
2019-06-26T18:19:12.112Z,33.10
2019-06-26T18:21:41.979Z,33.00
2019-06-26T18:24:10.689Z,33.00
2019-06-26T18:26:38.027Z,32.90
2019-06-26T18:29:06.296Z,32.80
2019-06-26T18:31:33.275Z,32.70
2019-06-26T18:34:01.323Z,32.70
2019-06-26T18:36:28.551Z,32.60
2019-06-26T18:38:55.484Z,32.60
2019-06-26T18:41:24.046Z,32.40
2019-06-26T18:43:51.358Z,32.30
2019-06-26T18:46:18.266Z,32.30
2019-06-26T18:48:48.284Z,32.20
2019-06-26T18:51:15.152Z,32.20
2019-06-26T18:53:53.047Z,32.10
2019-06-26T18:56:12.380Z,32.10
2019-06-26T18:58:39.277Z,31.90
2019-06-26T19:01:09.360Z,31.90
2019-06-26T19:03:36.276Z,31.90
2019-06-26T19:06:04.404Z,31.90
2019-06-26T19:08:31.853Z,31.90
2019-06-26T19:10:58.891Z,31.90
2019-06-26T19:13:29.621Z,31.80
2019-06-26T19:15:56.650Z,31.80
2019-06-26T19:18:24.049Z,31.80
2019-06-26T19:21:03.677Z,31.80
2019-06-26T19:23:31.376Z,31.70
2019-06-26T19:25:58.508Z,31.60
2019-06-26T19:28:26.165Z,31.60
2019-06-26T19:30:53.712Z,31.60
2019-06-26T19:33:20.901Z,31.60
2019-06-26T19:35:50.583Z,31.50
2019-06-26T19:38:18.825Z,31.40
2019-06-26T19:40:45.798Z,31.40
2019-06-26T19:43:13.903Z,31.30
2019-06-26T19:45:40.997Z,31.20
2019-06-26T19:48:08.591Z,31.20
2019-06-26T19:50:35.598Z,31.10
2019-06-26T19:53:03.777Z,31.00
2019-06-26T19:55:34.712Z,30.90
2019-06-26T19:58:01.816Z,30.80
2019-06-26T20:00:29.057Z,30.70
2019-06-26T20:02:56.350Z,30.70
2019-06-26T20:05:23.391Z,30.60
2019-06-26T20:07:52.857Z,30.60
2019-06-26T20:10:20.376Z,30.60
2019-06-26T20:12:47.228Z,30.60
2019-06-26T20:15:15.638Z,30.60
2019-06-26T20:17:42.993Z,30.60
2019-06-26T20:20:11.807Z,30.50
2019-06-26T20:22:40.825Z,30.40
2019-06-26T20:25:08.094Z,30.40
2019-06-26T20:27:37.142Z,30.30
2019-06-26T20:30:09.231Z,30.30
2019-06-26T20:32:37.148Z,30.30
2019-06-26T20:35:04.256Z,30.20
2019-06-26T20:37:31.122Z,30.20
2019-06-26T20:40:00.103Z,30.00
2019-06-26T20:42:28.677Z,30.00
2019-06-26T20:44:57.535Z,29.90
2019-06-26T20:47:24.721Z,29.80
2019-06-26T20:49:53.526Z,29.80
2019-06-26T20:52:22.184Z,29.70
2019-06-26T20:55:00.547Z,29.60
2019-06-26T20:57:22.093Z,29.50
2019-06-26T20:59:48.973Z,29.50
2019-06-26T21:02:18.351Z,29.40
2019-06-26T21:04:45.610Z,29.40
2019-06-26T21:07:12.437Z,29.30
2019-06-26T21:09:41.725Z,29.40
2019-06-26T21:12:08.938Z,29.30
2019-06-26T21:14:35.815Z,29.20
2019-06-26T21:17:04.726Z,29.20
2019-06-26T21:19:31.605Z,29.20
2019-06-26T21:21:59.538Z,29.20
2019-06-26T21:24:26.904Z,29.20
2019-06-26T21:26:54.029Z,29.10
2019-06-26T21:29:24.968Z,29.10
2019-06-26T21:31:51.878Z,28.90
2019-06-26T21:34:18.846Z,28.90
2019-06-26T21:36:46.376Z,28.90
2019-06-26T21:39:13.380Z,29.00
2019-06-26T21:41:41.026Z,29.00
2019-06-26T21:44:08.415Z,29.00
2019-06-26T21:46:35.290Z,29.00
2019-06-26T21:49:03.786Z,29.10
2019-06-26T21:51:31.045Z,29.00
2019-06-26T21:53:57.938Z,29.00
2019-06-26T21:56:44.834Z,28.80
2019-06-26T21:59:30.997Z,28.70
2019-06-26T22:02:16.269Z,28.60
2019-06-26T22:04:50.715Z,28.50
2019-06-26T22:07:22.789Z,28.50
2019-06-26T22:09:52.093Z,28.50
2019-06-26T22:12:19.448Z,28.40
2019-06-26T22:14:48.632Z,28.40
2019-06-26T22:17:15.980Z,28.40
2019-06-26T22:19:43.073Z,28.40
2019-06-26T22:22:10.078Z,28.30
2019-06-26T22:24:36.912Z,28.40
2019-06-26T22:27:03.876Z,28.40
2019-06-26T22:29:30.773Z,28.40
2019-06-26T22:31:57.734Z,28.30
2019-06-26T22:34:24.587Z,28.40
2019-06-26T22:36:52.450Z,28.40
2019-06-26T22:39:19.558Z,28.40
2019-06-26T22:41:47.289Z,28.40
2019-06-26T22:44:14.241Z,28.30
2019-06-26T22:46:41.837Z,28.30
2019-06-26T22:49:09.253Z,28.30
2019-06-26T22:51:36.282Z,28.20
2019-06-26T22:54:06.327Z,28.00
2019-06-26T22:56:33.483Z,28.10
2019-06-26T22:59:00.546Z,28.10
2019-06-26T23:01:29.627Z,28.10
2019-06-26T23:03:56.805Z,28.10
2019-06-26T23:06:25.146Z,28.10
2019-06-26T23:08:52.548Z,28.10
2019-06-26T23:11:19.540Z,28.00
2019-06-26T23:13:49.465Z,27.90
2019-06-26T23:16:16.646Z,27.80
2019-06-26T23:18:43.694Z,27.80
2019-06-26T23:21:11.895Z,27.90
2019-06-26T23:23:39.184Z,27.90
2019-06-26T23:26:06.246Z,27.80
2019-06-26T23:28:33.814Z,27.80
2019-06-26T23:31:00.709Z,27.60
2019-06-26T23:33:28.829Z,27.50
2019-06-26T23:35:56.196Z,27.40
2019-06-26T23:38:23.101Z,27.50
2019-06-26T23:40:52.736Z,27.50
2019-06-26T23:43:19.939Z,27.50
2019-06-26T23:45:47.586Z,27.50
2019-06-26T23:48:15.784Z,27.50
2019-06-26T23:50:43.306Z,27.50
2019-06-26T23:53:11.338Z,27.50
2019-06-26T23:55:38.702Z,27.50
2019-06-26T23:58:05.700Z,27.30
